sensor_id;sensor_type;location;lat;lon;timestamp;P1;durP1;ratioP1;P2;durP2;ratioP2
52043;SDS011;38053;53.100;6.078;2022-10-16T00:00:41;8.48;;;2.20;;
52043;SDS011;38053;53.100;6.078;2022-10-16T00:03:16;5.35;;;2.00;;
52043;SDS011;38053;53.100;6.078;2022-10-16T00:05:50;15.25;;;2.95;;
52043;SDS011;38053;53.100;6.078;2022-10-16T00:08:21;6.80;;;1.67;;
52043;SDS011;38053;53.100;6.078;2022-10-16T00:10:58;14.32;;;2.50;;
52043;SDS011;38053;53.100;6.078;2022-10-16T00:13:34;10.63;;;3.10;;
52043;SDS011;38053;53.100;6.078;2022-10-16T00:16:06;11.80;;;2.00;;
52043;SDS011;38053;53.100;6.078;2022-10-16T00:18:33;13.75;;;2.30;;
52043;SDS011;38053;53.100;6.078;2022-10-16T00:21:04;8.80;;;1.95;;
52043;SDS011;38053;53.100;6.078;2022-10-16T00:23:42;9.10;;;2.08;;
52043;SDS011;38053;53.100;6.078;2022-10-16T00:26:11;6.07;;;1.88;;
52043;SDS011;38053;53.100;6.078;2022-10-16T00:28:39;8.98;;;2.00;;
52043;SDS011;38053;53.100;6.078;2022-10-16T00:31:10;9.88;;;2.28;;
52043;SDS011;38053;53.100;6.078;2022-10-16T00:33:46;7.97;;;1.95;;
52043;SDS011;38053;53.100;6.078;2022-10-16T00:36:17;6.38;;;2.00;;
52043;SDS011;38053;53.100;6.078;2022-10-16T00:38:53;12.75;;;2.13;;
52043;SDS011;38053;53.100;6.078;2022-10-16T00:41:23;13.95;;;2.33;;
52043;SDS011;38053;53.100;6.078;2022-10-16T00:43:52;7.40;;;2.30;;
52043;SDS011;38053;53.100;6.078;2022-10-16T00:49:12;10.88;;;2.35;;
52043;SDS011;38053;53.100;6.078;2022-10-16T00:51:42;5.70;;;2.25;;
52043;SDS011;38053;53.100;6.078;2022-10-16T00:54:33;9.68;;;1.85;;
52043;SDS011;38053;53.100;6.078;2022-10-16T00:57:03;12.02;;;1.90;;
52043;SDS011;38053;53.100;6.078;2022-10-16T00:59:39;13.85;;;2.92;;
52043;SDS011;38053;53.100;6.078;2022-10-16T01:02:11;6.63;;;1.60;;
52043;SDS011;38053;53.100;6.078;2022-10-16T01:04:40;8.13;;;1.95;;
52043;SDS011;38053;53.100;6.078;2022-10-16T01:13:06;11.00;;;2.78;;
52043;SDS011;38053;53.100;6.078;2022-10-16T01:18:18;7.75;;;2.67;;
52043;SDS011;38053;53.100;6.078;2022-10-16T01:21:04;8.13;;;1.75;;
52043;SDS011;38053;53.100;6.078;2022-10-16T01:23:51;6.13;;;1.52;;
52043;SDS011;38053;53.100;6.078;2022-10-16T01:29:34;13.40;;;2.65;;
52043;SDS011;38053;53.100;6.078;2022-10-16T01:32:05;6.35;;;1.88;;
52043;SDS011;38053;53.100;6.078;2022-10-16T01:34:54;10.35;;;1.85;;
52043;SDS011;38053;53.100;6.078;2022-10-16T01:37:41;7.68;;;2.30;;
52043;SDS011;38053;53.100;6.078;2022-10-16T01:40:14;5.40;;;2.10;;
52043;SDS011;38053;53.100;6.078;2022-10-16T01:42:44;6.90;;;2.00;;
52043;SDS011;38053;53.100;6.078;2022-10-16T01:45:14;9.20;;;2.08;;
52043;SDS011;38053;53.100;6.078;2022-10-16T01:47:43;11.35;;;2.10;;
52043;SDS011;38053;53.100;6.078;2022-10-16T01:50:10;8.40;;;2.35;;
52043;SDS011;38053;53.100;6.078;2022-10-16T01:52:45;5.20;;;1.83;;
52043;SDS011;38053;53.100;6.078;2022-10-16T01:55:17;6.32;;;2.05;;
52043;SDS011;38053;53.100;6.078;2022-10-16T01:57:54;9.90;;;1.92;;
52043;SDS011;38053;53.100;6.078;2022-10-16T02:00:21;7.25;;;2.05;;
52043;SDS011;38053;53.100;6.078;2022-10-16T02:02:49;7.00;;;2.22;;
52043;SDS011;38053;53.100;6.078;2022-10-16T02:07:54;6.82;;;2.05;;
52043;SDS011;38053;53.100;6.078;2022-10-16T02:10:20;7.95;;;2.42;;
52043;SDS011;38053;53.100;6.078;2022-10-16T02:12:50;8.18;;;2.15;;
52043;SDS011;38053;53.100;6.078;2022-10-16T02:15:24;6.70;;;1.48;;
52043;SDS011;38053;53.100;6.078;2022-10-16T02:17:50;9.32;;;3.08;;
52043;SDS011;38053;53.100;6.078;2022-10-16T02:20:20;5.00;;;1.92;;
52043;SDS011;38053;53.100;6.078;2022-10-16T02:22:50;4.63;;;2.00;;
52043;SDS011;38053;53.100;6.078;2022-10-16T02:25:25;7.68;;;2.17;;
52043;SDS011;38053;53.100;6.078;2022-10-16T02:28:03;9.32;;;2.35;;
52043;SDS011;38053;53.100;6.078;2022-10-16T02:30:39;9.48;;;2.03;;
52043;SDS011;38053;53.100;6.078;2022-10-16T02:33:34;8.25;;;2.67;;
52043;SDS011;38053;53.100;6.078;2022-10-16T02:36:01;8.80;;;1.95;;
52043;SDS011;38053;53.100;6.078;2022-10-16T02:38:27;10.23;;;2.13;;
52043;SDS011;38053;53.100;6.078;2022-10-16T02:40:55;4.63;;;1.77;;
52043;SDS011;38053;53.100;6.078;2022-10-16T02:43:24;10.55;;;2.60;;
52043;SDS011;38053;53.100;6.078;2022-10-16T02:45:53;9.10;;;1.95;;
52043;SDS011;38053;53.100;6.078;2022-10-16T02:48:18;6.32;;;2.13;;
52043;SDS011;38053;53.100;6.078;2022-10-16T02:50:44;7.55;;;2.00;;
52043;SDS011;38053;53.100;6.078;2022-10-16T02:53:10;9.32;;;2.75;;
52043;SDS011;38053;53.100;6.078;2022-10-16T02:58:04;6.65;;;2.50;;
52043;SDS011;38053;53.100;6.078;2022-10-16T03:00:29;12.38;;;2.45;;
52043;SDS011;38053;53.100;6.078;2022-10-16T03:02:55;7.45;;;2.70;;
52043;SDS011;38053;53.100;6.078;2022-10-16T03:05:21;4.30;;;1.70;;
52043;SDS011;38053;53.100;6.078;2022-10-16T03:07:46;7.82;;;1.85;;
52043;SDS011;38053;53.100;6.078;2022-10-16T03:10:12;8.23;;;2.25;;
52043;SDS011;38053;53.100;6.078;2022-10-16T03:12:41;7.30;;;2.42;;
52043;SDS011;38053;53.100;6.078;2022-10-16T03:15:09;7.18;;;2.13;;
52043;SDS011;38053;53.100;6.078;2022-10-16T03:17:35;5.75;;;1.90;;
52043;SDS011;38053;53.100;6.078;2022-10-16T03:20:02;8.55;;;2.35;;
52043;SDS011;38053;53.100;6.078;2022-10-16T03:22:28;16.40;;;2.78;;
52043;SDS011;38053;53.100;6.078;2022-10-16T03:24:54;5.10;;;1.70;;
52043;SDS011;38053;53.100;6.078;2022-10-16T03:27:20;8.48;;;2.33;;
52043;SDS011;38053;53.100;6.078;2022-10-16T03:29:46;3.97;;;1.92;;
52043;SDS011;38053;53.100;6.078;2022-10-16T03:32:11;9.65;;;2.72;;
52043;SDS011;38053;53.100;6.078;2022-10-16T03:34:37;7.55;;;2.08;;
52043;SDS011;38053;53.100;6.078;2022-10-16T03:37:03;3.85;;;1.90;;
52043;SDS011;38053;53.100;6.078;2022-10-16T03:39:29;8.48;;;2.83;;
52043;SDS011;38053;53.100;6.078;2022-10-16T03:41:54;6.57;;;2.33;;
52043;SDS011;38053;53.100;6.078;2022-10-16T03:44:20;7.35;;;2.08;;
52043;SDS011;38053;53.100;6.078;2022-10-16T03:46:59;8.90;;;2.40;;
52043;SDS011;38053;53.100;6.078;2022-10-16T03:49:24;8.15;;;2.47;;
52043;SDS011;38053;53.100;6.078;2022-10-16T03:51:50;4.82;;;1.80;;
52043;SDS011;38053;53.100;6.078;2022-10-16T03:54:16;13.55;;;2.10;;
52043;SDS011;38053;53.100;6.078;2022-10-16T03:56:41;5.10;;;2.10;;
52043;SDS011;38053;53.100;6.078;2022-10-16T03:59:07;4.70;;;2.33;;
52043;SDS011;38053;53.100;6.078;2022-10-16T04:01:33;9.65;;;1.90;;
52043;SDS011;38053;53.100;6.078;2022-10-16T04:04:01;6.30;;;2.00;;
52043;SDS011;38053;53.100;6.078;2022-10-16T04:06:27;8.05;;;1.73;;
52043;SDS011;38053;53.100;6.078;2022-10-16T04:08:52;8.05;;;1.95;;
52043;SDS011;38053;53.100;6.078;2022-10-16T04:11:18;5.80;;;1.95;;
52043;SDS011;38053;53.100;6.078;2022-10-16T04:13:44;4.18;;;1.85;;
52043;SDS011;38053;53.100;6.078;2022-10-16T04:16:09;7.63;;;1.88;;
52043;SDS011;38053;53.100;6.078;2022-10-16T04:18:35;8.30;;;1.98;;
52043;SDS011;38053;53.100;6.078;2022-10-16T04:21:04;3.30;;;1.67;;
52043;SDS011;38053;53.100;6.078;2022-10-16T04:23:31;7.57;;;1.90;;
52043;SDS011;38053;53.100;6.078;2022-10-16T04:25:59;6.68;;;1.90;;
52043;SDS011;38053;53.100;6.078;2022-10-16T04:28:25;5.35;;;1.85;;
52043;SDS011;38053;53.100;6.078;2022-10-16T04:30:52;5.15;;;2.08;;
52043;SDS011;38053;53.100;6.078;2022-10-16T04:33:20;3.03;;;1.42;;
52043;SDS011;38053;53.100;6.078;2022-10-16T04:35:46;4.85;;;1.70;;
52043;SDS011;38053;53.100;6.078;2022-10-16T04:38:23;16.08;;;1.98;;
52043;SDS011;38053;53.100;6.078;2022-10-16T04:40:51;5.72;;;1.80;;
52043;SDS011;38053;53.100;6.078;2022-10-16T04:43:20;6.35;;;1.95;;
52043;SDS011;38053;53.100;6.078;2022-10-16T04:46:03;7.25;;;2.25;;
52043;SDS011;38053;53.100;6.078;2022-10-16T04:48:37;7.45;;;1.60;;
52043;SDS011;38053;53.100;6.078;2022-10-16T04:51:05;5.70;;;2.00;;
52043;SDS011;38053;53.100;6.078;2022-10-16T04:53:54;8.55;;;1.67;;
52043;SDS011;38053;53.100;6.078;2022-10-16T04:56:26;13.38;;;2.03;;
52043;SDS011;38053;53.100;6.078;2022-10-16T04:58:54;9.35;;;1.80;;
52043;SDS011;38053;53.100;6.078;2022-10-16T05:01:20;8.98;;;2.15;;
52043;SDS011;38053;53.100;6.078;2022-10-16T05:03:46;13.95;;;2.50;;
52043;SDS011;38053;53.100;6.078;2022-10-16T05:06:12;8.45;;;1.88;;
52043;SDS011;38053;53.100;6.078;2022-10-16T05:08:37;10.68;;;2.13;;
52043;SDS011;38053;53.100;6.078;2022-10-16T05:11:03;7.00;;;2.30;;
52043;SDS011;38053;53.100;6.078;2022-10-16T05:13:29;8.90;;;2.17;;
52043;SDS011;38053;53.100;6.078;2022-10-16T05:15:55;5.30;;;2.30;;
52043;SDS011;38053;53.100;6.078;2022-10-16T05:18:20;10.98;;;2.55;;
52043;SDS011;38053;53.100;6.078;2022-10-16T05:20:49;11.13;;;3.38;;
52043;SDS011;38053;53.100;6.078;2022-10-16T05:23:18;12.00;;;2.67;;
52043;SDS011;38053;53.100;6.078;2022-10-16T05:25:51;10.70;;;2.50;;
52043;SDS011;38053;53.100;6.078;2022-10-16T05:28:18;8.05;;;2.25;;
52043;SDS011;38053;53.100;6.078;2022-10-16T05:30:44;9.48;;;2.80;;
52043;SDS011;38053;53.100;6.078;2022-10-16T05:33:09;10.80;;;2.25;;
52043;SDS011;38053;53.100;6.078;2022-10-16T05:35:35;7.43;;;3.10;;
52043;SDS011;38053;53.100;6.078;2022-10-16T05:38:01;10.30;;;3.00;;
52043;SDS011;38053;53.100;6.078;2022-10-16T05:40:27;7.13;;;3.13;;
52043;SDS011;38053;53.100;6.078;2022-10-16T05:42:55;8.85;;;2.42;;
52043;SDS011;38053;53.100;6.078;2022-10-16T05:45:21;6.40;;;2.28;;
52043;SDS011;38053;53.100;6.078;2022-10-16T05:47:47;6.45;;;2.88;;
52043;SDS011;38053;53.100;6.078;2022-10-16T05:50:13;10.15;;;3.25;;
52043;SDS011;38053;53.100;6.078;2022-10-16T05:52:38;16.98;;;3.28;;
52043;SDS011;38053;53.100;6.078;2022-10-16T05:55:04;10.15;;;2.80;;
52043;SDS011;38053;53.100;6.078;2022-10-16T05:57:30;10.32;;;2.97;;
52043;SDS011;38053;53.100;6.078;2022-10-16T05:59:58;5.63;;;2.78;;
52043;SDS011;38053;53.100;6.078;2022-10-16T06:02:24;7.57;;;2.85;;
52043;SDS011;38053;53.100;6.078;2022-10-16T06:04:51;7.93;;;3.47;;
52043;SDS011;38053;53.100;6.078;2022-10-16T06:07:18;9.25;;;3.47;;
52043;SDS011;38053;53.100;6.078;2022-10-16T06:09:47;8.93;;;3.40;;
52043;SDS011;38053;53.100;6.078;2022-10-16T06:12:14;7.73;;;3.23;;
52043;SDS011;38053;53.100;6.078;2022-10-16T06:14:41;9.45;;;3.35;;
52043;SDS011;38053;53.100;6.078;2022-10-16T06:17:06;11.32;;;3.22;;
52043;SDS011;38053;53.100;6.078;2022-10-16T06:19:32;6.63;;;2.63;;
52043;SDS011;38053;53.100;6.078;2022-10-16T06:22:00;12.55;;;2.75;;
52043;SDS011;38053;53.100;6.078;2022-10-16T06:24:27;5.70;;;2.55;;
52043;SDS011;38053;53.100;6.078;2022-10-16T06:26:56;7.97;;;3.47;;
52043;SDS011;38053;53.100;6.078;2022-10-16T06:29:21;9.30;;;3.53;;
52043;SDS011;38053;53.100;6.078;2022-10-16T06:31:47;7.60;;;2.88;;
52043;SDS011;38053;53.100;6.078;2022-10-16T06:34:13;11.50;;;2.70;;
52043;SDS011;38053;53.100;6.078;2022-10-16T06:36:38;8.10;;;2.65;;
52043;SDS011;38053;53.100;6.078;2022-10-16T06:39:05;9.70;;;2.67;;
52043;SDS011;38053;53.100;6.078;2022-10-16T06:41:32;7.97;;;2.80;;
52043;SDS011;38053;53.100;6.078;2022-10-16T06:43:59;6.68;;;2.50;;
52043;SDS011;38053;53.100;6.078;2022-10-16T06:46:25;10.40;;;2.42;;
52043;SDS011;38053;53.100;6.078;2022-10-16T06:48:52;8.35;;;2.65;;
52043;SDS011;38053;53.100;6.078;2022-10-16T06:51:19;10.95;;;3.17;;
52043;SDS011;38053;53.100;6.078;2022-10-16T06:53:47;8.10;;;2.83;;
52043;SDS011;38053;53.100;6.078;2022-10-16T06:56:21;6.47;;;2.55;;
52043;SDS011;38053;53.100;6.078;2022-10-16T06:58:51;6.05;;;2.65;;
52043;SDS011;38053;53.100;6.078;2022-10-16T07:01:19;13.38;;;3.33;;
52043;SDS011;38053;53.100;6.078;2022-10-16T07:03:49;11.48;;;3.17;;
52043;SDS011;38053;53.100;6.078;2022-10-16T07:06:18;5.20;;;2.20;;
52043;SDS011;38053;53.100;6.078;2022-10-16T07:11:58;10.25;;;2.40;;
52043;SDS011;38053;53.100;6.078;2022-10-16T07:14:32;6.00;;;2.63;;
52043;SDS011;38053;53.100;6.078;2022-10-16T07:18:04;12.20;;;2.75;;
52043;SDS011;38053;53.100;6.078;2022-10-16T07:20:51;11.30;;;2.88;;
52043;SDS011;38053;53.100;6.078;2022-10-16T07:23:28;9.88;;;2.33;;
52043;SDS011;38053;53.100;6.078;2022-10-16T07:25:57;10.70;;;3.78;;
52043;SDS011;38053;53.100;6.078;2022-10-16T07:28:31;7.50;;;2.72;;
52043;SDS011;38053;53.100;6.078;2022-10-16T07:31:28;9.23;;;3.97;;
52043;SDS011;38053;53.100;6.078;2022-10-16T07:34:11;8.23;;;3.17;;
52043;SDS011;38053;53.100;6.078;2022-10-16T07:36:47;12.13;;;3.03;;
52043;SDS011;38053;53.100;6.078;2022-10-16T07:39:21;7.78;;;3.22;;
52043;SDS011;38053;53.100;6.078;2022-10-16T07:41:51;10.45;;;3.60;;
52043;SDS011;38053;53.100;6.078;2022-10-16T07:44:22;9.00;;;3.70;;
52043;SDS011;38053;53.100;6.078;2022-10-16T07:46:50;10.45;;;3.22;;
52043;SDS011;38053;53.100;6.078;2022-10-16T07:49:31;7.40;;;2.72;;
52043;SDS011;38053;53.100;6.078;2022-10-16T07:52:12;11.60;;;3.40;;
52043;SDS011;38053;53.100;6.078;2022-10-16T07:54:40;12.13;;;2.88;;
52043;SDS011;38053;53.100;6.078;2022-10-16T07:57:18;8.60;;;2.55;;
52043;SDS011;38053;53.100;6.078;2022-10-16T08:00:07;8.57;;;2.85;;
52043;SDS011;38053;53.100;6.078;2022-10-16T08:02:44;10.77;;;2.70;;
52043;SDS011;38053;53.100;6.078;2022-10-16T08:05:52;9.95;;;2.78;;
52043;SDS011;38053;53.100;6.078;2022-10-16T08:08:22;8.30;;;3.70;;
52043;SDS011;38053;53.100;6.078;2022-10-16T08:11:01;8.23;;;3.05;;
52043;SDS011;38053;53.100;6.078;2022-10-16T08:23:18;8.73;;;2.67;;
52043;SDS011;38053;53.100;6.078;2022-10-16T08:29:13;7.05;;;2.58;;
52043;SDS011;38053;53.100;6.078;2022-10-16T08:31:42;7.72;;;1.95;;
52043;SDS011;38053;53.100;6.078;2022-10-16T08:34:10;11.98;;;2.28;;
52043;SDS011;38053;53.100;6.078;2022-10-16T08:36:38;7.10;;;1.80;;
52043;SDS011;38053;53.100;6.078;2022-10-16T08:39:11;7.60;;;1.73;;
52043;SDS011;38053;53.100;6.078;2022-10-16T08:44:51;7.90;;;2.10;;
52043;SDS011;38053;53.100;6.078;2022-10-16T08:51:37;16.70;;;2.10;;
52043;SDS011;38053;53.100;6.078;2022-10-16T08:54:36;10.02;;;2.58;;
52043;SDS011;38053;53.100;6.078;2022-10-16T08:57:27;13.85;;;2.67;;
52043;SDS011;38053;53.100;6.078;2022-10-16T08:59:53;5.50;;;1.60;;
52043;SDS011;38053;53.100;6.078;2022-10-16T09:02:35;8.48;;;3.25;;
52043;SDS011;38053;53.100;6.078;2022-10-16T09:08:17;17.67;;;2.20;;
52043;SDS011;38053;53.100;6.078;2022-10-16T09:21:25;15.32;;;3.15;;
52043;SDS011;38053;53.100;6.078;2022-10-16T09:23:52;13.55;;;3.50;;
52043;SDS011;38053;53.100;6.078;2022-10-16T09:26:25;9.07;;;1.90;;
52043;SDS011;38053;53.100;6.078;2022-10-16T09:28:53;14.75;;;3.35;;
52043;SDS011;38053;53.100;6.078;2022-10-16T09:31:26;11.18;;;2.70;;
52043;SDS011;38053;53.100;6.078;2022-10-16T09:33:53;10.57;;;4.57;;
52043;SDS011;38053;53.100;6.078;2022-10-16T09:42:27;14.82;;;2.40;;
52043;SDS011;38053;53.100;6.078;2022-10-16T09:48:27;14.50;;;2.70;;
52043;SDS011;38053;53.100;6.078;2022-10-16T09:54:37;13.95;;;3.22;;
52043;SDS011;38053;53.100;6.078;2022-10-16T10:00:23;13.57;;;2.42;;
52043;SDS011;38053;53.100;6.078;2022-10-16T10:03:35;12.40;;;3.00;;
52043;SDS011;38053;53.100;6.078;2022-10-16T10:06:59;15.93;;;3.38;;
52043;SDS011;38053;53.100;6.078;2022-10-16T10:22:53;15.30;;;2.50;;
52043;SDS011;38053;53.100;6.078;2022-10-16T10:33:44;15.50;;;2.60;;
52043;SDS011;38053;53.100;6.078;2022-10-16T10:36:27;11.85;;;2.83;;
52043;SDS011;38053;53.100;6.078;2022-10-16T10:39:02;20.35;;;4.30;;
52043;SDS011;38053;53.100;6.078;2022-10-16T10:44:51;14.32;;;2.90;;
52043;SDS011;38053;53.100;6.078;2022-10-16T10:47:48;17.33;;;3.00;;
52043;SDS011;38053;53.100;6.078;2022-10-16T10:52:56;20.20;;;3.85;;
52043;SDS011;38053;53.100;6.078;2022-10-16T10:55:33;14.70;;;2.95;;
52043;SDS011;38053;53.100;6.078;2022-10-16T11:01:29;18.33;;;3.30;;
52043;SDS011;38053;53.100;6.078;2022-10-16T11:04:23;18.05;;;4.10;;
52043;SDS011;38053;53.100;6.078;2022-10-16T11:12:49;17.80;;;3.17;;
52043;SDS011;38053;53.100;6.078;2022-10-16T11:15:27;17.67;;;3.50;;
52043;SDS011;38053;53.100;6.078;2022-10-16T11:21:02;14.38;;;3.00;;
52043;SDS011;38053;53.100;6.078;2022-10-16T11:24:08;14.70;;;2.90;;
52043;SDS011;38053;53.100;6.078;2022-10-16T11:27:00;25.20;;;6.43;;
52043;SDS011;38053;53.100;6.078;2022-10-16T11:29:34;12.52;;;3.00;;
52043;SDS011;38053;53.100;6.078;2022-10-16T11:32:23;21.83;;;3.40;;
52043;SDS011;38053;53.100;6.078;2022-10-16T11:35:02;15.32;;;2.92;;
52043;SDS011;38053;53.100;6.078;2022-10-16T11:37:49;14.52;;;4.55;;
52043;SDS011;38053;53.100;6.078;2022-10-16T11:40:25;14.98;;;3.97;;
52043;SDS011;38053;53.100;6.078;2022-10-16T11:45:51;18.38;;;4.97;;
52043;SDS011;38053;53.100;6.078;2022-10-16T11:48:31;11.82;;;2.75;;
52043;SDS011;38053;53.100;6.078;2022-10-16T11:52:24;16.95;;;3.42;;
52043;SDS011;38053;53.100;6.078;2022-10-16T11:55:02;18.13;;;4.68;;
52043;SDS011;38053;53.100;6.078;2022-10-16T11:57:31;17.83;;;4.07;;
52043;SDS011;38053;53.100;6.078;2022-10-16T12:00:14;20.85;;;3.65;;
52043;SDS011;38053;53.100;6.078;2022-10-16T12:08:43;19.13;;;3.67;;
52043;SDS011;38053;53.100;6.078;2022-10-16T12:11:33;22.17;;;4.28;;
52043;SDS011;38053;53.100;6.078;2022-10-16T12:19:39;18.90;;;3.08;;
52043;SDS011;38053;53.100;6.078;2022-10-16T12:22:15;35.00;;;4.03;;
52043;SDS011;38053;53.100;6.078;2022-10-16T12:24:50;14.70;;;2.70;;
52043;SDS011;38053;53.100;6.078;2022-10-16T12:27:30;11.15;;;2.88;;
52043;SDS011;38053;53.100;6.078;2022-10-16T12:30:04;18.20;;;3.13;;
52043;SDS011;38053;53.100;6.078;2022-10-16T12:32:52;12.88;;;2.90;;
52043;SDS011;38053;53.100;6.078;2022-10-16T12:35:32;8.15;;;2.70;;
52043;SDS011;38053;53.100;6.078;2022-10-16T12:38:19;13.50;;;2.75;;
52043;SDS011;38053;53.100;6.078;2022-10-16T12:40:58;11.07;;;2.28;;
52043;SDS011;38053;53.100;6.078;2022-10-16T12:43:44;14.38;;;2.55;;
52043;SDS011;38053;53.100;6.078;2022-10-16T12:48:37;15.27;;;2.65;;
52043;SDS011;38053;53.100;6.078;2022-10-16T13:00:00;12.82;;;3.47;;
52043;SDS011;38053;53.100;6.078;2022-10-16T13:02:49;13.00;;;3.00;;
52043;SDS011;38053;53.100;6.078;2022-10-16T13:14:16;12.95;;;2.47;;
52043;SDS011;38053;53.100;6.078;2022-10-16T13:28:40;11.40;;;2.20;;
52043;SDS011;38053;53.100;6.078;2022-10-16T13:31:18;16.48;;;4.07;;
52043;SDS011;38053;53.100;6.078;2022-10-16T13:33:58;11.30;;;2.50;;
52043;SDS011;38053;53.100;6.078;2022-10-16T13:36:44;16.80;;;3.45;;
52043;SDS011;38053;53.100;6.078;2022-10-16T13:39:49;16.17;;;3.83;;
52043;SDS011;38053;53.100;6.078;2022-10-16T13:42:40;17.30;;;4.13;;
52043;SDS011;38053;53.100;6.078;2022-10-16T13:45:21;14.57;;;2.78;;
52043;SDS011;38053;53.100;6.078;2022-10-16T13:48:16;17.23;;;2.88;;
52043;SDS011;38053;53.100;6.078;2022-10-16T13:51:20;14.55;;;4.13;;
52043;SDS011;38053;53.100;6.078;2022-10-16T13:57:30;15.57;;;3.90;;
52043;SDS011;38053;53.100;6.078;2022-10-16T14:00:16;14.55;;;3.30;;
52043;SDS011;38053;53.100;6.078;2022-10-16T14:02:49;13.45;;;3.00;;
52043;SDS011;38053;53.100;6.078;2022-10-16T14:08:27;14.25;;;2.83;;
52043;SDS011;38053;53.100;6.078;2022-10-16T14:11:05;18.95;;;3.75;;
52043;SDS011;38053;53.100;6.078;2022-10-16T14:13:34;13.30;;;3.28;;
52043;SDS011;38053;53.100;6.078;2022-10-16T14:16:28;20.13;;;3.05;;
52043;SDS011;38053;53.100;6.078;2022-10-16T14:19:21;18.02;;;3.45;;
52043;SDS011;38053;53.100;6.078;2022-10-16T14:28:18;15.90;;;3.40;;
52043;SDS011;38053;53.100;6.078;2022-10-16T14:30:59;18.25;;;2.58;;
52043;SDS011;38053;53.100;6.078;2022-10-16T14:36:20;11.88;;;2.00;;
52043;SDS011;38053;53.100;6.078;2022-10-16T14:38:52;23.90;;;4.28;;
52043;SDS011;38053;53.100;6.078;2022-10-16T14:41:48;13.40;;;2.72;;
52043;SDS011;38053;53.100;6.078;2022-10-16T14:44:34;12.70;;;2.25;;
52043;SDS011;38053;53.100;6.078;2022-10-16T14:50:45;9.27;;;2.72;;
52043;SDS011;38053;53.100;6.078;2022-10-16T14:53:15;18.40;;;3.80;;
52043;SDS011;38053;53.100;6.078;2022-10-16T14:55:53;18.73;;;3.03;;
52043;SDS011;38053;53.100;6.078;2022-10-16T14:58:20;15.65;;;3.80;;
52043;SDS011;38053;53.100;6.078;2022-10-16T15:00:56;19.60;;;3.53;;
52043;SDS011;38053;53.100;6.078;2022-10-16T15:03:36;15.88;;;2.65;;
52043;SDS011;38053;53.100;6.078;2022-10-16T15:06:02;15.63;;;3.28;;
52043;SDS011;38053;53.100;6.078;2022-10-16T15:08:41;19.42;;;3.78;;
52043;SDS011;38053;53.100;6.078;2022-10-16T15:11:31;13.80;;;2.83;;
52043;SDS011;38053;53.100;6.078;2022-10-16T15:14:39;17.50;;;3.83;;
52043;SDS011;38053;53.100;6.078;2022-10-16T15:17:11;16.80;;;2.90;;
52043;SDS011;38053;53.100;6.078;2022-10-16T15:19:37;19.83;;;3.65;;
52043;SDS011;38053;53.100;6.078;2022-10-16T15:22:21;18.63;;;2.55;;
52043;SDS011;38053;53.100;6.078;2022-10-16T15:25:44;23.15;;;3.42;;
52043;SDS011;38053;53.100;6.078;2022-10-16T15:28:23;20.45;;;2.85;;
52043;SDS011;38053;53.100;6.078;2022-10-16T15:34:20;14.82;;;2.50;;
52043;SDS011;38053;53.100;6.078;2022-10-16T15:37:10;26.65;;;5.03;;
52043;SDS011;38053;53.100;6.078;2022-10-16T15:39:50;13.73;;;3.47;;
52043;SDS011;38053;53.100;6.078;2022-10-16T15:42:28;12.50;;;3.03;;
52043;SDS011;38053;53.100;6.078;2022-10-16T15:44:56;19.42;;;4.07;;
52043;SDS011;38053;53.100;6.078;2022-10-16T15:47:25;19.45;;;3.67;;
52043;SDS011;38053;53.100;6.078;2022-10-16T15:49:50;15.48;;;4.15;;
52043;SDS011;38053;53.100;6.078;2022-10-16T15:52:16;13.18;;;3.45;;
52043;SDS011;38053;53.100;6.078;2022-10-16T15:54:42;18.05;;;3.90;;
52043;SDS011;38053;53.100;6.078;2022-10-16T16:00:14;14.82;;;3.00;;
52043;SDS011;38053;53.100;6.078;2022-10-16T16:02:54;15.60;;;2.53;;
52043;SDS011;38053;53.100;6.078;2022-10-16T16:05:36;15.43;;;4.63;;
52043;SDS011;38053;53.100;6.078;2022-10-16T16:08:28;10.53;;;3.67;;
52043;SDS011;38053;53.100;6.078;2022-10-16T16:11:34;15.73;;;3.33;;
52043;SDS011;38053;53.100;6.078;2022-10-16T16:14:24;18.20;;;3.58;;
52043;SDS011;38053;53.100;6.078;2022-10-16T16:20:31;13.95;;;3.33;;
52043;SDS011;38053;53.100;6.078;2022-10-16T16:23:17;22.02;;;4.32;;
52043;SDS011;38053;53.100;6.078;2022-10-16T16:28:59;19.20;;;5.60;;
52043;SDS011;38053;53.100;6.078;2022-10-16T16:31:25;32.53;;;6.75;;
52043;SDS011;38053;53.100;6.078;2022-10-16T16:34:05;22.98;;;5.70;;
52043;SDS011;38053;53.100;6.078;2022-10-16T16:36:32;20.63;;;4.78;;
52043;SDS011;38053;53.100;6.078;2022-10-16T16:38:58;20.65;;;5.07;;
52043;SDS011;38053;53.100;6.078;2022-10-16T16:41:25;15.65;;;4.18;;
52043;SDS011;38053;53.100;6.078;2022-10-16T16:43:53;19.75;;;4.80;;
52043;SDS011;38053;53.100;6.078;2022-10-16T16:46:20;20.02;;;4.60;;
52043;SDS011;38053;53.100;6.078;2022-10-16T16:48:46;13.95;;;4.30;;
52043;SDS011;38053;53.100;6.078;2022-10-16T16:51:15;14.48;;;4.20;;
52043;SDS011;38053;53.100;6.078;2022-10-16T16:53:49;22.52;;;4.30;;
52043;SDS011;38053;53.100;6.078;2022-10-16T16:56:16;20.02;;;4.25;;
52043;SDS011;38053;53.100;6.078;2022-10-16T16:58:46;15.48;;;5.20;;
52043;SDS011;38053;53.100;6.078;2022-10-16T17:01:13;15.90;;;4.97;;
52043;SDS011;38053;53.100;6.078;2022-10-16T17:03:41;15.07;;;5.10;;
52043;SDS011;38053;53.100;6.078;2022-10-16T17:06:11;16.58;;;4.28;;
52043;SDS011;38053;53.100;6.078;2022-10-16T17:08:37;14.82;;;5.90;;
52043;SDS011;38053;53.100;6.078;2022-10-16T17:11:04;18.67;;;4.55;;
52043;SDS011;38053;53.100;6.078;2022-10-16T17:13:34;15.25;;;3.83;;
52043;SDS011;38053;53.100;6.078;2022-10-16T17:16:02;14.00;;;3.83;;
52043;SDS011;38053;53.100;6.078;2022-10-16T17:18:29;24.80;;;6.22;;
52043;SDS011;38053;53.100;6.078;2022-10-16T17:20:58;17.45;;;4.45;;
52043;SDS011;38053;53.100;6.078;2022-10-16T17:23:24;14.80;;;4.07;;
52043;SDS011;38053;53.100;6.078;2022-10-16T17:25:50;27.35;;;5.97;;
52043;SDS011;38053;53.100;6.078;2022-10-16T17:28:16;17.58;;;4.95;;
52043;SDS011;38053;53.100;6.078;2022-10-16T17:30:42;12.55;;;3.75;;
52043;SDS011;38053;53.100;6.078;2022-10-16T17:33:09;16.77;;;3.72;;
52043;SDS011;38053;53.100;6.078;2022-10-16T17:35:41;16.88;;;5.32;;
52043;SDS011;38053;53.100;6.078;2022-10-16T17:38:08;20.60;;;4.80;;
52043;SDS011;38053;53.100;6.078;2022-10-16T17:40:34;20.17;;;6.00;;
52043;SDS011;38053;53.100;6.078;2022-10-16T17:43:00;16.65;;;5.57;;
52043;SDS011;38053;53.100;6.078;2022-10-16T17:45:26;24.75;;;5.13;;
52043;SDS011;38053;53.100;6.078;2022-10-16T17:47:53;18.65;;;5.65;;
52043;SDS011;38053;53.100;6.078;2022-10-16T17:50:19;25.60;;;5.20;;
52043;SDS011;38053;53.100;6.078;2022-10-16T17:52:45;20.73;;;8.18;;
52043;SDS011;38053;53.100;6.078;2022-10-16T17:55:11;26.10;;;7.80;;
52043;SDS011;38053;53.100;6.078;2022-10-16T17:57:36;19.25;;;6.00;;
52043;SDS011;38053;53.100;6.078;2022-10-16T18:00:03;21.92;;;6.20;;
52043;SDS011;38053;53.100;6.078;2022-10-16T18:02:30;20.17;;;6.15;;
52043;SDS011;38053;53.100;6.078;2022-10-16T18:04:56;21.73;;;5.53;;
52043;SDS011;38053;53.100;6.078;2022-10-16T18:07:21;16.42;;;5.20;;
52043;SDS011;38053;53.100;6.078;2022-10-16T18:09:47;17.42;;;5.35;;
52043;SDS011;38053;53.100;6.078;2022-10-16T18:12:13;22.48;;;5.50;;
52043;SDS011;38053;53.100;6.078;2022-10-16T18:14:39;16.63;;;4.85;;
52043;SDS011;38053;53.100;6.078;2022-10-16T18:17:05;19.60;;;5.10;;
52043;SDS011;38053;53.100;6.078;2022-10-16T18:19:31;16.58;;;6.40;;
52043;SDS011;38053;53.100;6.078;2022-10-16T18:21:56;13.25;;;5.60;;
52043;SDS011;38053;53.100;6.078;2022-10-16T18:24:23;18.02;;;6.82;;
52043;SDS011;38053;53.100;6.078;2022-10-16T18:26:53;18.65;;;6.35;;
52043;SDS011;38053;53.100;6.078;2022-10-16T18:29:23;20.15;;;6.47;;